My Meet Scores
Tiana Friedman, Gym Stars ETC - MyMeetScores.com
Top100 | Top Teams | Upcoming Meets | Completed Meets | Latest | Add Scores | Help| Support | Bookmark and Share

Tiana Friedman, Gym Stars ETC
Personal Bests
LevelVault BarsBeamFloorAA
XG8.1008.700 8.5509.05034.400
XS9.2259.800 9.5259.37537.725
Meet Scores
Date Meet Team Session Level Division Vault Bars Beam Floor AA
2019-11-08 Illinois Judges Cup Gym Stars ETC G3 XG All Ages 8.100 19 8.700 13T 8.550 15 9.050 14T 34.400 14T
2019-05-03 2019 Region 5 Xcel Championships Gym Stars ETC 12D XS JR A 9.175 28T 9.375 17T 9.050 35T 8.775 29T 36.375 29T
2019-04-13 2019 Illinois XB, XS State Championships Gym Stars ETC 5 XS Jr D 9.225 17 9.625 15T 9.500 9T 9.375 12T 37.725 13
2019-03-08 Lucky Invite Gym Stars ETC B09 XS Jr B 8.500 14 9.500 11T 9.525 6T 8.650 18 36.175 14
2019-02-15 Women's Midwest Open Gym Stars ETC 13 XS Junior B 8.800 10 9.475 1 9.425 6T 9.300 4 37.000 5T
2019-02-01 St. Valentines Classic Gym Stars ETC 4B XS 10 yrs. 8.500 17 8.825 14 9.250 5 8.750 12 35.325 13
2019-01-11 St Jude Benefit Meet Gym Stars ETC 8C XS Sr A 8.750 10T 9.600 4T 9.125 9T 9.025 10 36.500 8
2018-12-14 Hawaiian Pineapple Classic Gym Stars ETC 9A XS Age10 8.850 9T 9.450 2 9.500 3 8.950 5T 36.750 3
2018-11-17 Paul Hamm Thanksgiving Class WOMENS Gym Stars ETC 8 XS Older 8.450 8 9.800 2 9.350 3 8.900 8 36.500 5
2018-04-26 Xcel Region 5 Championships Gym Stars ETC 6B XS Ch D 8.850 25 9.250 25 9.175 19 8.875 24 36.150 26
2018-04-06 XCEL State Championships Gym Stars ETC 1A XS Ch C 9.075 15 8.900 25T 9.075 26 9.050 16T 36.100 19T
2018-03-09 Lucky Invitational Gym Stars ETC B09 XS Jr A 8.600 17T 9.300 13 9.250 9T 9.175 7 36.325 10
2018-02-16 Big Classic Gym Stars ETC 9A XS Junior A 8.700 17 9.550 6T 9.400 8 9.100 3T 36.750 10
2018-01-12 St Jude Benefit Meet Gym Stars ETC 9C XS JrA 8.725 7 8.950 13 9.275 10 9.200 9T 36.150 9
2017-12-14 2017 Women's Hawaiian Pineapple Classic Gym Stars ETC 3A XS Ages9U 8.400 9T 9.300 5T 8.950 4 9.225 8T 35.875 7
2017-11-17 SCGA Classic Gym Stars ETC 4 XS JrA 8.025 16 9.225 9 8.900 8 9.000 6 35.150 11
2017-05-11 2017 Region 5 Xcel Championships Gym Stars ETC 3B XS Ch B 8.700 29T 9.100 29 8.750 30 8.900 30 35.450 31
2017-04-21 2017 Illinois Xcel State Championships Gym Stars ETC 5 XS Ch A 8.750 14T 9.225 18T 8.900 14T 8.875 18T 35.750 16T
2017-03-10 Lucky Invitational Gym Stars ETC B07 XS Jr A 8.550 16 9.000 17 9.100 11 8.850 13 35.500 13
2017-02-24 Kinetic Classic Gym Stars ETC 8 XS All Ages 8.700 28T 9.100 47T 9.175 45T 8.600 46 35.575 44
2017-02-10 IGI Chicago Style Gymnastics Meet Gym Stars ETC 631L XS JrA 8.550 5 8.750 9 9.100 6 9.150 4 35.550 6
2016-12-15 2016 Hawaiian Pineapple Sanction Gym Stars ETC 7B XS Ages 9U 8.700 6 8.350 4 8.450 5 8.250 4 33.750 5
Get your scores on
a t-shirt, pin, or hoodie

www.lazysuits.com